createdAt,value
2023-01-22T00:01:35.372Z,1.80
2023-01-22T00:04:04.237Z,1.80
2023-01-22T00:06:33.053Z,1.70
2023-01-22T00:09:04.000Z,1.70
2023-01-22T00:11:33.104Z,1.70
2023-01-22T00:14:02.083Z,1.70
2023-01-22T00:16:30.891Z,1.80
2023-01-22T00:18:59.662Z,1.80
2023-01-22T00:21:28.600Z,1.70
2023-01-22T00:23:57.541Z,1.70
2023-01-22T00:26:28.096Z,1.70
2023-01-22T00:28:56.949Z,1.70
2023-01-22T00:31:26.041Z,1.70
2023-01-22T00:33:54.862Z,1.60
2023-01-22T00:36:24.337Z,1.60
2023-01-22T00:38:53.272Z,1.60
2023-01-22T00:41:22.361Z,1.60
2023-01-22T00:43:53.066Z,1.60
2023-01-22T00:46:22.219Z,1.60
2023-01-22T00:48:51.429Z,1.60
2023-01-22T00:51:20.677Z,1.60
2023-01-22T00:53:49.513Z,1.60
2023-01-22T00:56:18.586Z,1.60
2023-01-22T00:58:47.302Z,1.60
2023-01-22T01:01:17.972Z,1.60
2023-01-22T01:03:46.728Z,1.60
2023-01-22T01:06:18.398Z,1.60
2023-01-22T01:08:49.305Z,1.60
2023-01-22T01:11:22.077Z,1.60
2023-01-22T01:13:52.860Z,1.60
2023-01-22T01:16:27.244Z,1.60
2023-01-22T01:18:59.704Z,1.60
2023-01-22T01:21:29.349Z,1.60
2023-01-22T01:23:59.658Z,1.60
2023-01-22T01:26:29.876Z,1.60
2023-01-22T01:28:58.667Z,1.60
2023-01-22T01:31:28.847Z,1.60
2023-01-22T01:33:57.625Z,1.60
2023-01-22T01:36:47.039Z,1.60
2023-01-22T01:39:16.330Z,1.60
2023-01-22T01:41:45.262Z,1.60
2023-01-22T01:44:17.588Z,1.60
2023-01-22T01:46:52.691Z,1.60
2023-01-22T01:49:32.156Z,1.60
2023-01-22T01:52:07.948Z,1.50
2023-01-22T01:54:37.434Z,1.50
2023-01-22T01:57:13.995Z,1.50
2023-01-22T01:59:46.007Z,1.50
2023-01-22T02:02:17.093Z,1.50
2023-01-22T02:04:45.813Z,1.50
2023-01-22T02:07:14.607Z,1.50
2023-01-22T02:09:43.436Z,1.50
2023-01-22T02:12:12.371Z,1.50
2023-01-22T02:14:46.009Z,1.50
2023-01-22T02:17:20.735Z,1.50
2023-01-22T02:19:50.254Z,1.50
2023-01-22T02:22:24.126Z,1.50
2023-01-22T02:24:53.130Z,1.50
2023-01-22T02:27:22.228Z,1.50
2023-01-22T02:29:51.388Z,1.50
2023-01-22T02:32:20.347Z,1.40
2023-01-22T02:34:49.112Z,1.50
2023-01-22T02:37:19.435Z,1.50
2023-01-22T02:39:48.349Z,1.50
2023-01-22T02:42:17.120Z,1.50
2023-01-22T02:44:45.823Z,1.50
2023-01-22T02:47:14.656Z,1.50
2023-01-22T02:49:43.429Z,1.50
2023-01-22T02:52:12.293Z,1.50
2023-01-22T02:54:42.471Z,1.40
2023-01-22T02:57:11.359Z,1.40
2023-01-22T02:59:40.076Z,1.40
2023-01-22T03:02:08.952Z,1.50
2023-01-22T03:04:37.851Z,1.40
2023-01-22T03:07:06.544Z,1.40
2023-01-22T03:09:35.304Z,1.40
2023-01-22T03:12:06.161Z,1.40
2023-01-22T03:14:52.492Z,1.40
2023-01-22T03:17:39.071Z,1.40
2023-01-22T03:20:26.810Z,1.40
2023-01-22T03:22:55.981Z,1.40
2023-01-22T03:25:24.712Z,1.50
2023-01-22T03:28:18.727Z,1.40
2023-01-22T03:30:47.587Z,1.40
2023-01-22T03:33:16.392Z,1.40
2023-01-22T03:35:45.391Z,1.40
2023-01-22T03:38:14.272Z,1.40
2023-01-22T03:40:43.129Z,1.40
2023-01-22T03:43:13.265Z,1.40
2023-01-22T03:45:41.990Z,1.40
2023-01-22T03:48:10.700Z,1.40
2023-01-22T03:50:39.445Z,1.40
2023-01-22T03:53:08.129Z,1.40
2023-01-22T03:55:36.867Z,1.40
2023-01-22T03:58:05.765Z,1.40
2023-01-22T04:00:35.979Z,1.40
2023-01-22T04:03:04.974Z,1.30
2023-01-22T04:05:33.669Z,1.40
2023-01-22T04:08:02.350Z,1.30
2023-01-22T04:10:31.088Z,1.40
2023-01-22T04:12:59.780Z,1.30
2023-01-22T04:15:28.577Z,1.40
2023-01-22T04:17:58.670Z,1.30
2023-01-22T04:20:27.649Z,1.30
2023-01-22T04:22:56.395Z,1.30
2023-01-22T04:25:25.132Z,1.30
2023-01-22T04:27:53.999Z,1.30
2023-01-22T04:30:23.084Z,1.30
2023-01-22T04:32:51.802Z,1.30
2023-01-22T04:35:22.134Z,1.30
2023-01-22T04:37:51.298Z,1.40
2023-01-22T04:40:21.051Z,1.40
2023-01-22T04:42:49.844Z,1.40
2023-01-22T04:45:19.233Z,1.30
2023-01-22T04:47:49.869Z,1.30
2023-01-22T04:50:23.844Z,1.30
2023-01-22T04:52:53.003Z,1.40
2023-01-22T04:55:22.351Z,1.30
2023-01-22T04:57:51.733Z,1.40
2023-01-22T05:00:21.392Z,1.40
2023-01-22T05:02:50.166Z,1.40
2023-01-22T05:05:19.355Z,1.40
2023-01-22T05:07:49.604Z,1.40
2023-01-22T05:10:19.053Z,1.40
2023-01-22T05:12:47.977Z,1.30
2023-01-22T05:15:24.083Z,1.30
2023-01-22T05:17:54.285Z,1.30
2023-01-22T05:20:23.443Z,1.30
2023-01-22T05:22:53.843Z,1.30
2023-01-22T05:25:22.594Z,1.30
2023-01-22T05:27:51.416Z,1.30
2023-01-22T05:30:20.623Z,1.20
2023-01-22T05:32:49.585Z,1.20
2023-01-22T05:35:18.567Z,1.20
2023-01-22T05:37:47.277Z,1.20
2023-01-22T05:40:18.241Z,1.20
2023-01-22T05:42:47.232Z,1.30
2023-01-22T05:45:16.171Z,1.20
2023-01-22T05:47:44.970Z,1.20
2023-01-22T05:50:13.735Z,1.20
2023-01-22T05:52:42.439Z,1.20
2023-01-22T05:55:12.965Z,1.30
2023-01-22T05:57:43.210Z,1.30
2023-01-22T06:00:13.717Z,1.20
2023-01-22T06:02:42.542Z,1.20
2023-01-22T06:05:11.896Z,1.20
2023-01-22T06:07:40.673Z,1.20
2023-01-22T06:10:10.914Z,1.10
2023-01-22T06:12:39.639Z,1.20
2023-01-22T06:15:11.639Z,1.20
2023-01-22T06:17:40.365Z,1.10
2023-01-22T06:20:11.814Z,1.10
2023-01-22T06:22:40.541Z,1.10
2023-01-22T06:25:10.149Z,1.10
2023-01-22T06:27:38.996Z,1.10
2023-01-22T06:30:11.384Z,1.10
2023-01-22T06:32:41.035Z,1.10
2023-01-22T06:35:10.548Z,1.10
2023-01-22T06:37:39.293Z,1.10
2023-01-22T06:40:09.744Z,1.10
2023-01-22T06:42:38.863Z,1.20
2023-01-22T06:45:10.372Z,1.10
2023-01-22T06:47:39.220Z,1.10
2023-01-22T06:50:09.049Z,1.10
2023-01-22T06:52:37.967Z,1.10
2023-01-22T06:55:07.550Z,1.20
2023-01-22T06:57:36.603Z,1.10
2023-01-22T07:00:07.400Z,1.10
2023-01-22T07:02:37.570Z,1.10
2023-01-22T07:05:06.993Z,1.20
2023-01-22T07:07:35.694Z,1.20
2023-01-22T07:10:05.624Z,1.20
2023-01-22T07:12:34.521Z,1.20
2023-01-22T07:15:03.516Z,1.20
2023-01-22T07:17:32.257Z,1.20
2023-01-22T07:20:02.379Z,1.20
2023-01-22T07:22:32.702Z,1.30
2023-01-22T07:25:02.177Z,1.30
2023-01-22T07:27:32.721Z,1.20
2023-01-22T07:30:01.531Z,1.20
2023-01-22T07:32:30.264Z,1.20
2023-01-22T07:34:59.034Z,1.30
2023-01-22T07:37:29.159Z,1.20
2023-01-22T07:39:57.861Z,1.30
2023-01-22T07:42:26.603Z,1.30
2023-01-22T07:44:55.454Z,1.30
2023-01-22T07:47:24.256Z,1.30
2023-01-22T07:49:53.138Z,1.30
2023-01-22T07:52:21.996Z,1.30
2023-01-22T07:54:52.253Z,1.30
2023-01-22T07:57:21.404Z,1.30
2023-01-22T07:59:50.230Z,1.40
2023-01-22T08:02:19.076Z,1.40
2023-01-22T08:04:47.860Z,1.40
2023-01-22T08:07:18.267Z,1.40
2023-01-22T08:09:47.199Z,1.30
2023-01-22T08:12:17.419Z,1.40
2023-01-22T08:14:46.167Z,1.40
2023-01-22T08:17:15.189Z,1.40
2023-01-22T08:19:44.104Z,1.40
2023-01-22T08:22:12.896Z,1.40
2023-01-22T08:24:42.928Z,1.50
2023-01-22T08:27:11.792Z,1.50
2023-01-22T08:29:41.971Z,1.50
2023-01-22T08:32:10.886Z,1.50
2023-01-22T08:34:39.790Z,1.50
2023-01-22T08:37:08.640Z,1.50
2023-01-22T08:39:37.445Z,1.50
2023-01-22T08:42:06.306Z,1.50
2023-01-22T08:44:35.176Z,1.50
2023-01-22T08:47:05.757Z,1.50
2023-01-22T08:49:34.586Z,1.60
2023-01-22T08:52:03.342Z,1.60
2023-01-22T08:54:32.102Z,1.60
2023-01-22T08:57:01.202Z,1.60
2023-01-22T08:59:31.123Z,1.70
2023-01-22T09:02:00.559Z,1.70
2023-01-22T09:04:30.825Z,1.70
2023-01-22T09:06:59.596Z,1.70
2023-01-22T09:09:28.405Z,1.70
2023-01-22T09:11:57.193Z,1.80
2023-01-22T09:14:26.297Z,1.80
2023-01-22T09:16:55.028Z,1.90
2023-01-22T09:19:23.792Z,1.90
2023-01-22T09:21:53.970Z,1.90
2023-01-22T09:24:22.690Z,1.80
2023-01-22T09:26:51.736Z,1.80
2023-01-22T09:29:20.436Z,1.90
2023-01-22T09:31:51.162Z,1.90
2023-01-22T09:34:20.117Z,1.90
2023-01-22T09:36:48.951Z,1.90
2023-01-22T09:39:23.150Z,1.90
2023-01-22T09:41:58.088Z,2.00
2023-01-22T09:44:37.757Z,2.00
2023-01-22T09:47:13.016Z,2.00
2023-01-22T09:49:55.450Z,2.00
2023-01-22T09:52:31.894Z,2.00
2023-01-22T09:55:02.523Z,2.00
2023-01-22T09:57:32.338Z,1.90
2023-01-22T10:00:01.572Z,2.00
2023-01-22T10:02:39.240Z,2.00
2023-01-22T10:05:24.995Z,2.00
2023-01-22T10:08:01.769Z,2.10
2023-01-22T10:10:34.181Z,2.10
2023-01-22T10:13:15.938Z,2.10
2023-01-22T10:15:45.333Z,2.10
2023-01-22T10:18:30.925Z,2.20
2023-01-22T10:21:05.064Z,2.10
2023-01-22T10:23:35.806Z,2.20
2023-01-22T10:26:25.050Z,2.20
2023-01-22T10:28:58.962Z,2.30
2023-01-22T10:31:33.255Z,2.30
2023-01-22T10:34:05.910Z,2.40
2023-01-22T10:36:34.964Z,2.40
2023-01-22T10:39:13.532Z,2.50
2023-01-22T10:41:46.043Z,2.50
2023-01-22T10:44:25.053Z,2.50
2023-01-22T10:46:56.391Z,2.50
2023-01-22T10:49:28.486Z,2.50
2023-01-22T10:51:59.868Z,2.50
2023-01-22T10:54:34.726Z,2.60
2023-01-22T10:57:34.378Z,2.60
2023-01-22T11:00:23.285Z,2.70
2023-01-22T11:02:52.868Z,2.80
2023-01-22T11:05:24.425Z,2.90
2023-01-22T11:07:59.262Z,3.00
2023-01-22T11:10:38.098Z,3.10
2023-01-22T11:13:17.924Z,3.10
2023-01-22T11:15:56.217Z,3.10
2023-01-22T11:18:34.232Z,3.10
2023-01-22T11:21:11.675Z,3.20
2023-01-22T11:23:56.231Z,3.10
2023-01-22T11:26:53.860Z,2.90
2023-01-22T11:29:47.890Z,2.80
2023-01-22T11:32:53.307Z,2.80
2023-01-22T11:35:31.082Z,2.70
2023-01-22T11:38:23.587Z,2.70
2023-01-22T11:41:22.891Z,2.60
2023-01-22T11:44:17.651Z,2.50
2023-01-22T11:47:11.639Z,2.50
2023-01-22T11:50:00.285Z,2.50
2023-01-22T11:52:44.632Z,2.50
2023-01-22T11:55:44.134Z,2.60
2023-01-22T11:58:27.596Z,2.50
2023-01-22T12:01:15.119Z,2.50
2023-01-22T12:04:20.821Z,2.60
2023-01-22T12:07:21.989Z,2.60
2023-01-22T12:10:05.089Z,2.60
2023-01-22T12:12:48.487Z,2.60
2023-01-22T12:15:40.477Z,2.60
2023-01-22T12:18:57.828Z,2.60
2023-01-22T12:21:46.461Z,2.70
2023-01-22T12:24:24.907Z,2.60
2023-01-22T12:27:01.478Z,2.60
2023-01-22T12:29:37.575Z,2.60
2023-01-22T12:32:11.069Z,2.60
2023-01-22T12:34:48.541Z,2.80
2023-01-22T12:37:26.522Z,2.80
2023-01-22T12:40:17.838Z,2.70
2023-01-22T12:42:57.913Z,2.70
2023-01-22T12:45:52.375Z,2.70
2023-01-22T12:48:34.001Z,2.70
2023-01-22T12:51:02.876Z,2.70
2023-01-22T12:53:35.429Z,2.70
2023-01-22T12:56:07.041Z,2.70
2023-01-22T12:58:39.190Z,2.60
2023-01-22T13:01:24.036Z,2.60
2023-01-22T13:04:01.289Z,2.60
2023-01-22T13:06:37.036Z,2.70
2023-01-22T13:09:25.272Z,2.70
2023-01-22T13:11:54.114Z,2.70
2023-01-22T13:14:27.524Z,2.80
2023-01-22T13:17:00.686Z,2.80
2023-01-22T13:19:39.872Z,2.70
2023-01-22T13:22:15.054Z,2.70
2023-01-22T13:24:52.096Z,2.70
2023-01-22T13:27:29.446Z,2.60
2023-01-22T13:30:09.626Z,2.60
2023-01-22T13:32:38.365Z,2.60
2023-01-22T13:35:08.703Z,2.50
2023-01-22T13:37:38.828Z,2.50
2023-01-22T13:40:31.533Z,2.40
2023-01-22T13:43:03.692Z,2.50
2023-01-22T13:45:35.121Z,2.50
2023-01-22T13:48:06.545Z,2.50
2023-01-22T13:50:37.086Z,2.50
2023-01-22T13:53:07.205Z,2.50
2023-01-22T13:55:37.502Z,2.50
2023-01-22T13:58:07.605Z,2.50
2023-01-22T14:00:37.827Z,2.50
2023-01-22T14:03:24.664Z,2.50
2023-01-22T14:06:05.281Z,2.50
2023-01-22T14:08:45.358Z,2.50
2023-01-22T14:11:15.848Z,2.50
2023-01-22T14:13:46.939Z,2.50
2023-01-22T14:16:16.219Z,2.40
2023-01-22T14:18:46.901Z,2.40
2023-01-22T14:21:16.683Z,2.30
2023-01-22T14:23:46.327Z,2.30
2023-01-22T14:26:16.781Z,2.30
2023-01-22T14:28:45.581Z,2.30
2023-01-22T14:31:14.481Z,2.30
2023-01-22T14:33:43.219Z,2.20
2023-01-22T14:36:12.096Z,2.20
2023-01-22T14:38:40.974Z,2.20
2023-01-22T14:41:09.699Z,2.10
2023-01-22T14:43:39.820Z,2.10
2023-01-22T14:46:09.872Z,2.10
2023-01-22T14:48:40.083Z,2.30
2023-01-22T14:51:12.922Z,2.40
2023-01-22T14:53:41.693Z,2.50
2023-01-22T14:56:10.483Z,2.50
2023-01-22T14:58:40.739Z,2.50
2023-01-22T15:01:18.148Z,2.50
2023-01-22T15:03:46.949Z,2.40
2023-01-22T15:06:15.938Z,2.40
2023-01-22T15:08:44.668Z,2.30
2023-01-22T15:11:13.476Z,2.30
2023-01-22T15:13:43.742Z,2.20
2023-01-22T15:16:13.659Z,2.20
2023-01-22T15:18:42.754Z,2.10
2023-01-22T15:21:12.199Z,2.10
2023-01-22T15:23:41.040Z,2.10
2023-01-22T15:26:26.344Z,2.10
2023-01-22T15:28:57.296Z,2.10
2023-01-22T15:31:26.052Z,2.00
2023-01-22T15:33:55.398Z,2.00
2023-01-22T15:36:24.124Z,2.00
2023-01-22T15:38:52.938Z,2.00
2023-01-22T15:41:24.697Z,2.00
2023-01-22T15:43:56.889Z,2.10
2023-01-22T15:46:28.057Z,2.20
2023-01-22T15:48:57.823Z,2.20
2023-01-22T15:51:27.438Z,2.20
2023-01-22T15:53:59.182Z,2.10
2023-01-22T15:56:30.455Z,2.10
2023-01-22T15:59:01.320Z,2.10
2023-01-22T16:01:30.502Z,2.00
2023-01-22T16:04:00.948Z,2.00
2023-01-22T16:06:32.284Z,2.00
2023-01-22T16:09:03.816Z,1.90
2023-01-22T16:11:33.022Z,1.90
2023-01-22T16:14:03.272Z,1.90
2023-01-22T16:16:36.361Z,2.00
2023-01-22T16:19:07.761Z,2.00
2023-01-22T16:21:37.048Z,2.00
2023-01-22T16:24:07.120Z,2.00
2023-01-22T16:26:37.197Z,2.00
2023-01-22T16:29:07.988Z,1.90
2023-01-22T16:31:38.283Z,1.90
2023-01-22T16:34:13.842Z,1.90
2023-01-22T16:36:43.919Z,2.00
2023-01-22T16:39:19.842Z,2.00
2023-01-22T16:41:50.478Z,1.90
2023-01-22T16:44:26.139Z,1.90
2023-01-22T16:46:59.875Z,1.90
2023-01-22T16:49:32.138Z,1.90
2023-01-22T16:52:16.528Z,1.90
2023-01-22T16:54:49.768Z,1.90
2023-01-22T16:57:19.500Z,2.00
2023-01-22T16:59:49.750Z,1.90
2023-01-22T17:02:20.287Z,2.00
2023-01-22T17:04:49.065Z,2.00
2023-01-22T17:07:32.849Z,2.00
2023-01-22T17:10:02.644Z,2.00
2023-01-22T17:12:31.400Z,2.10
2023-01-22T17:15:01.592Z,2.10
2023-01-22T17:17:30.418Z,2.10
2023-01-22T17:19:59.198Z,2.10
2023-01-22T17:22:27.990Z,2.10
2023-01-22T17:24:56.931Z,2.10
2023-01-22T17:27:26.029Z,2.10
2023-01-22T17:29:54.799Z,2.10
2023-01-22T17:32:26.565Z,2.10
2023-01-22T17:34:55.417Z,2.10
2023-01-22T17:37:24.444Z,2.20
2023-01-22T17:39:53.168Z,2.20
2023-01-22T17:42:22.223Z,2.20
2023-01-22T17:44:51.060Z,2.20
2023-01-22T17:47:20.169Z,2.20
2023-01-22T17:49:50.726Z,2.30
2023-01-22T17:52:20.430Z,2.30
2023-01-22T17:54:50.919Z,2.30
2023-01-22T17:57:20.171Z,2.40
2023-01-22T17:59:49.263Z,2.40
2023-01-22T18:02:18.266Z,2.40
2023-01-22T18:04:47.260Z,2.40
2023-01-22T18:07:18.537Z,2.40
2023-01-22T18:09:47.550Z,2.40
2023-01-22T18:12:16.734Z,2.40
2023-01-22T18:14:45.649Z,2.40
2023-01-22T18:17:14.730Z,2.40
2023-01-22T18:19:43.776Z,2.40
2023-01-22T18:22:12.651Z,2.40
2023-01-22T18:24:44.523Z,2.40
2023-01-22T18:27:14.069Z,2.40
2023-01-22T18:29:42.924Z,2.50
2023-01-22T18:32:11.837Z,2.60
2023-01-22T18:34:41.202Z,2.60
2023-01-22T18:37:12.032Z,2.60
2023-01-22T18:39:42.811Z,2.60
2023-01-22T18:42:11.634Z,2.50
2023-01-22T18:44:41.033Z,2.50
2023-01-22T18:47:11.369Z,2.50
2023-01-22T18:49:40.378Z,2.50
2023-01-22T18:52:09.335Z,2.50
2023-01-22T18:54:38.673Z,2.40
2023-01-22T18:57:09.158Z,2.40
2023-01-22T18:59:38.161Z,2.40
2023-01-22T19:02:08.835Z,2.40
2023-01-22T19:04:37.995Z,2.30
2023-01-22T19:07:06.942Z,2.30
2023-01-22T19:09:35.723Z,2.40
2023-01-22T19:12:04.570Z,2.40
2023-01-22T19:14:35.103Z,2.40
2023-01-22T19:17:06.395Z,2.40
2023-01-22T19:19:35.695Z,2.30
2023-01-22T19:22:05.085Z,2.40
2023-01-22T19:24:33.948Z,2.40
2023-01-22T19:27:04.274Z,2.40
2023-01-22T19:29:34.717Z,2.40
2023-01-22T19:32:03.905Z,2.40
2023-01-22T19:34:33.215Z,2.40
2023-01-22T19:37:03.461Z,2.30
2023-01-22T19:39:33.620Z,2.40
2023-01-22T19:42:05.274Z,2.30
2023-01-22T19:44:37.395Z,2.40
2023-01-22T19:47:06.830Z,2.30
2023-01-22T19:49:35.643Z,2.30
2023-01-22T19:52:05.084Z,2.40
2023-01-22T19:54:34.785Z,2.40
2023-01-22T19:57:03.698Z,2.40
2023-01-22T19:59:32.523Z,2.40
2023-01-22T20:02:02.840Z,2.50
2023-01-22T20:04:33.973Z,2.50
2023-01-22T20:07:05.999Z,2.50
2023-01-22T20:09:38.852Z,2.50
2023-01-22T20:12:10.696Z,2.60
2023-01-22T20:14:43.391Z,2.50
2023-01-22T20:17:14.306Z,2.50
2023-01-22T20:19:44.326Z,2.50
2023-01-22T20:22:13.476Z,2.80
2023-01-22T20:24:42.470Z,2.90
2023-01-22T20:27:12.053Z,2.90
2023-01-22T20:29:41.515Z,3.00
2023-01-22T20:32:10.817Z,3.00
2023-01-22T20:34:45.439Z,3.00
2023-01-22T20:37:14.278Z,3.00
2023-01-22T20:39:43.273Z,2.90
2023-01-22T20:42:12.335Z,2.80
2023-01-22T20:44:43.576Z,2.80
2023-01-22T20:47:13.831Z,2.80
2023-01-22T20:49:44.293Z,2.80
2023-01-22T20:52:13.406Z,2.80
2023-01-22T20:54:54.772Z,2.70
2023-01-22T20:57:29.281Z,2.70
2023-01-22T20:59:58.565Z,2.70
2023-01-22T21:02:27.963Z,2.60
2023-01-22T21:04:59.255Z,2.70
2023-01-22T21:07:28.304Z,2.70
2023-01-22T21:09:57.285Z,2.70
2023-01-22T21:12:27.392Z,2.70
2023-01-22T21:14:57.407Z,2.70
2023-01-22T21:17:26.597Z,2.70
2023-01-22T21:19:55.666Z,2.70
2023-01-22T21:22:26.242Z,2.70
2023-01-22T21:24:55.145Z,2.70
2023-01-22T21:27:24.135Z,2.70
2023-01-22T21:29:55.335Z,2.70
2023-01-22T21:32:24.371Z,2.60
2023-01-22T21:34:53.329Z,2.60
2023-01-22T21:37:22.084Z,2.60
2023-01-22T21:39:52.362Z,2.60
2023-01-22T21:42:38.797Z,2.60
2023-01-22T21:45:27.371Z,2.60
2023-01-22T21:47:56.188Z,2.60
2023-01-22T21:50:25.072Z,2.50
2023-01-22T21:52:55.313Z,2.50
2023-01-22T21:55:25.505Z,2.50
2023-01-22T21:57:54.366Z,2.50
2023-01-22T22:00:23.307Z,2.50
2023-01-22T22:02:53.335Z,2.50
2023-01-22T22:05:22.498Z,2.50
2023-01-22T22:07:51.366Z,2.50
2023-01-22T22:10:20.931Z,2.40
2023-01-22T22:12:51.281Z,2.40
2023-01-22T22:15:20.078Z,2.40
2023-01-22T22:17:49.062Z,2.50
2023-01-22T22:20:18.993Z,2.50
2023-01-22T22:22:47.891Z,2.50
2023-01-22T22:25:16.927Z,2.50
2023-01-22T22:27:45.788Z,2.50
2023-01-22T22:30:16.943Z,2.50
2023-01-22T22:32:45.853Z,2.50
2023-01-22T22:35:14.685Z,2.50
2023-01-22T22:37:43.488Z,2.50
2023-01-22T22:40:13.452Z,2.50
2023-01-22T22:42:42.616Z,2.50
2023-01-22T22:45:12.191Z,2.50
2023-01-22T22:47:42.587Z,2.50
2023-01-22T22:50:12.407Z,2.60
2023-01-22T22:52:41.341Z,2.60
2023-01-22T22:55:11.007Z,2.60
2023-01-22T22:57:39.781Z,2.60
2023-01-22T23:00:13.330Z,2.60
2023-01-22T23:02:43.804Z,2.60
2023-01-22T23:05:12.554Z,2.60
2023-01-22T23:07:41.352Z,2.60
2023-01-22T23:10:28.912Z,2.70
2023-01-22T23:12:59.587Z,2.60
2023-01-22T23:15:30.706Z,2.60
2023-01-22T23:18:01.691Z,2.60
2023-01-22T23:20:30.887Z,2.60
2023-01-22T23:23:00.662Z,2.60
2023-01-22T23:25:29.358Z,2.60
2023-01-22T23:27:58.170Z,2.60
2023-01-22T23:30:27.036Z,2.60
2023-01-22T23:32:55.769Z,2.60
2023-01-22T23:35:25.880Z,2.50
2023-01-22T23:37:54.592Z,2.50
2023-01-22T23:40:23.435Z,2.40
2023-01-22T23:42:52.428Z,2.40
2023-01-22T23:45:21.224Z,2.40
2023-01-22T23:47:52.597Z,2.40
2023-01-22T23:50:21.644Z,2.40
2023-01-22T23:52:51.810Z,2.40
2023-01-22T23:55:20.557Z,2.40
2023-01-22T23:57:49.350Z,2.40
